Time;durP1;ratioP1;P1;durP2;ratioP2;P2;SDS_P1;SDS_P2;PMS_P1;PMS_P2;Temp;Humidity;BMP_temperature;BMP_pressure;BME280_temperature;BME280_humidity;BME280_pressure;Samples;Min_cycle;Max_cycle;Signal;HPM_P1;HPM_P2
2022/12/24 00:53:03;;;;;;;;;;;;;;;;;;2226338;59;1367;-84
2022/12/24 00:55:53;;;;;;;;;;;;;;;;;;2226273;58;1909;-84
2022/12/24 01:14:19;;;;;;;;;;;;;;;;;;2220894;58;1411;-84
2022/12/24 01:23:02;;;;;;;;;;;;;;;;;;2221052;58;1382;-86
2022/12/24 01:28:40;;;;;;;;;;;;;;;;;;2220941;58;1078;-84
2022/12/24 01:31:49;;;;;;;;;;;;;;;;;;2218621;59;1283;-85
2022/12/24 01:34:37;;;;;;;;;;;;;;;;;;2218560;58;1935;-85
2022/12/24 01:37:19;;;;;;;;;;;;;;;;;;2220336;59;1145;-84
2022/12/24 01:43:22;;;;;;;;;;;;;;;;;;2222197;59;1218;-85
2022/12/24 01:45:46;;;;;;;;;;;;;;;;;;2217663;59;1509;-84
2022/12/24 01:48:23;;;;;;;;;;;;;;;;;;2220824;59;1348;-85
2022/12/24 01:50:59;;;;;;;;;;;;;;;;;;2222051;59;1358;-84
2022/12/24 01:53:39;;;;;;;;;;;;;;;;;;2221205;58;1211;-84
2022/12/24 01:56:14;;;;;;;;;;;;;;;;;;2220270;58;2071;-84
2022/12/24 01:58:52;;;;;;;;;;;;;;;;;;2217107;59;1238;-84
2022/12/24 02:01:28;;;;;;;;;;;;;;;;;;2220815;58;1292;-84
2022/12/24 02:04:03;;;;;;;;;;;;;;;;;;2219166;58;1378;-84
2022/12/24 02:06:36;;;;;;;;;;;;;;;;;;2217296;58;1619;-84
2022/12/24 02:09:14;;;;;;;;;;;;;;;;;;2219474;59;1204;-84
2022/12/24 02:11:49;;;;;;;;;;;;;;;;;;2220516;58;1367;-86
2022/12/24 02:14:26;;;;;;;;;;;;;;;;;;2220051;58;1288;-85
2022/12/24 02:17:02;;;;;;;;;;;;;;;;;;2220960;59;1287;-84
2022/12/24 02:19:54;;;;;;;;;;;;;;;;;;2220199;59;1534;-85
2022/12/24 02:22:34;;;;;;;;;;;;;;;;;;2220770;58;1336;-86
2022/12/24 02:25:33;;;;;;;;;;;;;;;;;;2219925;58;1501;-84
2022/12/24 02:28:16;;;;;;;;;;;;;;;;;;2215897;59;1733;-83
2022/12/24 02:30:55;;;;;;;;;;;;;;;;;;2219636;58;1375;-84
2022/12/24 02:33:32;;;;;;;;;;;;;;;;;;2221725;59;1236;-84
2022/12/24 02:36:08;;;;;;;;;;;;;;;;;;2219956;59;1926;-85
2022/12/24 02:38:46;;;;;;;;;;;;;;;;;;2220819;58;1053;-84
2022/12/24 02:41:24;;;;;;;;;;;;;;;;;;2219121;58;1378;-84
2022/12/24 02:44:00;;;;;;;;;;;;;;;;;;2220460;58;1561;-84
2022/12/24 02:46:36;;;;;;;;;;;;;;;;;;2220915;66;1371;-84
2022/12/24 02:49:11;;;;;;;;;;;;;;;;;;2219467;59;1361;-84
2022/12/24 02:51:45;;;;;;;;;;;;;;;;;;2219694;58;2034;-84
2022/12/24 02:54:19;;;;;;;;;;;;;;;;;;2219061;59;1275;-84
2022/12/24 02:57:05;;;;;;;;;;;;;;;;;;2219382;58;1908;-86
2022/12/24 03:00:02;;;;;;;;;;;;;;;;;;2220368;58;1310;-84
2022/12/24 03:02:45;;;;;;;;;;;;;;;;;;2216135;59;1719;-85
2022/12/24 03:05:23;;;;;;;;;;;;;;;;;;2219226;58;1595;-85
2022/12/24 03:08:02;;;;;;;;;;;;;;;;;;2220347;58;1252;-85
2022/12/24 03:10:38;;;;;;;;;;;;;;;;;;2220530;58;1431;-84
2022/12/24 03:13:15;;;;;;;;;;;;;;;;;;2220953;59;1270;-84
2022/12/24 03:15:49;;;;;;;;;;;;;;;;;;2220159;59;1947;-84
2022/12/24 03:18:26;;;;;;;;;;;;;;;;;;2221703;66;1307;-85
2022/12/24 03:21:04;;;;;;;;;;;;;;;;;;2222257;58;1279;-84
2022/12/24 03:23:37;;;;;;;;;;;;;;;;;;2219503;58;1223;-85
2022/12/24 03:26:14;;;;;;;;;;;;;;;;;;2219623;59;1224;-84
2022/12/24 03:28:48;;;;;;;;;;;;;;;;;;2219663;58;1260;-84
2022/12/24 03:31:22;;;;;;;;;;;;;;;;;;2217690;59;1331;-85
2022/12/24 03:34:00;;;;;;;;;;;;;;;;;;2221662;59;1477;-84
2022/12/24 03:36:34;;;;;;;;;;;;;;;;;;2220715;59;1927;-84
2022/12/24 03:39:08;;;;;;;;;;;;;;;;;;2220341;58;1255;-84
2022/12/24 03:41:45;;;;;;;;;;;;;;;;;;2219972;59;1337;-83
2022/12/24 03:44:18;;;;;;;;;;;;;;;;;;2219262;59;1338;-84
2022/12/24 03:46:55;;;;;;;;;;;;;;;;;;2220100;58;1627;-84
2022/12/24 03:49:35;;;;;;;;;;;;;;;;;;2219396;58;1662;-83
2022/12/24 03:52:11;;;;;;;;;;;;;;;;;;2220056;58;1315;-85
2022/12/24 03:54:45;;;;;;;;;;;;;;;;;;2220083;58;1278;-84
2022/12/24 03:57:19;;;;;;;;;;;;;;;;;;2215919;59;1972;-83
2022/12/24 03:59:56;;;;;;;;;;;;;;;;;;2217397;59;1236;-83
2022/12/24 04:02:30;;;;;;;;;;;;;;;;;;2219708;58;1424;-84
2022/12/24 04:05:08;;;;;;;;;;;;;;;;;;2217231;59;1624;-83
2022/12/24 04:07:44;;;;;;;;;;;;;;;;;;2220250;58;1507;-84
2022/12/24 04:10:22;;;;;;;;;;;;;;;;;;2220301;58;1198;-84
2022/12/24 04:12:57;;;;;;;;;;;;;;;;;;2220709;58;1223;-84
2022/12/24 04:15:33;;;;;;;;;;;;;;;;;;2220833;58;1937;-84
2022/12/24 04:18:09;;;;;;;;;;;;;;;;;;2216357;59;1951;-83
2022/12/24 04:20:45;;;;;;;;;;;;;;;;;;2220085;59;1660;-83
2022/12/24 04:23:23;;;;;;;;;;;;;;;;;;2220140;58;1276;-85
2022/12/24 04:25:58;;;;;;;;;;;;;;;;;;2220319;59;1279;-83
2022/12/24 04:28:36;;;;;;;;;;;;;;;;;;2216842;59;1364;-83
2022/12/24 04:31:10;;;;;;;;;;;;;;;;;;2220048;58;1826;-83
2022/12/24 04:33:44;;;;;;;;;;;;;;;;;;2220275;59;1383;-83
2022/12/24 04:36:33;;;;;;;;;;;;;;;;;;2219409;59;1930;-83
2022/12/24 04:39:11;;;;;;;;;;;;;;;;;;2219540;59;1271;-83
2022/12/24 04:41:51;;;;;;;;;;;;;;;;;;2219977;58;1456;-83
2022/12/24 04:44:29;;;;;;;;;;;;;;;;;;2219993;58;1307;-84
2022/12/24 04:47:05;;;;;;;;;;;;;;;;;;2220364;58;1203;-83
2022/12/24 04:49:41;;;;;;;;;;;;;;;;;;2220193;58;1499;-84
2022/12/24 04:52:15;;;;;;;;;;;;;;;;;;2220200;58;1431;-84
2022/12/24 04:54:52;;;;;;;;;;;;;;;;;;2219904;58;1272;-83
2022/12/24 04:57:29;;;;;;;;;;;;;;;;;;2220977;59;1919;-84
2022/12/24 05:00:08;;;;;;;;;;;;;;;;;;2218111;59;1610;-84
2022/12/24 05:02:42;;;;;;;;;;;;;;;;;;2225059;58;1527;-83
2022/12/24 09:42:01;;;;;;;;;;;;;;;;;;2234912;58;2779;-73
2022/12/24 09:44:39;;;;;;;;;;;;;;;;;;2218615;58;1603;-73
2022/12/24 09:47:17;;;;;;;;;;;;;;;;;;2217772;58;14736;-73
2022/12/24 09:49:53;;;;;;;;;;;;;;;;;;2216941;58;15457;-73
2022/12/24 09:52:30;;;;;;;;;;;;;;;;;;2212428;59;12671;-73
2022/12/24 10:05:53;;;;;;;;;;;;;;;;;;2296642;53;1894;-73
2022/12/24 10:08:57;;;;;;;;;;;;;;;;;;2217330;58;25406;-74
2022/12/24 10:11:53;;;;;;;;;;;;;;;;;;2216603;58;17497;-74
2022/12/24 10:14:54;;;;;;;;;;;;;;;;;;2215135;58;15895;-73
2022/12/24 10:17:59;;;;;;;;;;;;;;;;;;2212775;58;51090;-73
2022/12/24 10:20:37;;;;;;;;;;;;;;;;;;2212893;58;12702;-73
2022/12/24 10:23:19;;;;;;;;;;;;;;;;;;2213085;58;12855;-73
2022/12/24 10:25:57;;;;;;;;;;;;;;;;;;2212725;59;29711;-73
2022/12/24 10:28:33;;;;;;;;;;;;;;;;;;2213207;59;12104;-73
2022/12/24 10:31:08;;;;;;;;;;;;;;;;;;2212918;58;11886;-73
2022/12/24 10:33:43;;;;;;;;;;;;;;;;;;2212889;59;25617;-73
2022/12/24 10:36:18;;;;;;;;;;;;;;;;;;2211051;59;13474;-73
2022/12/24 10:38:54;;;;;;;;;;;;;;;;;;2210528;59;12922;-74
2022/12/24 10:41:29;;;;;;;;;;;;;;;;;;2210724;59;12198;-73
2022/12/24 10:44:03;;;;;;;;;;;;;;;;;;2214129;58;12628;-73
2022/12/24 10:46:38;;;;;;;;;;;;;;;;;;2210658;59;17660;-73
2022/12/24 10:49:16;;;;;;;;;;;;;;;;;;2210202;59;19126;-73
2022/12/24 10:51:52;;;;;;;;;;;;;;;;;;2212318;59;12715;-74
2022/12/24 10:54:37;;;;;;;;;;;;;;;;;;2213266;58;12346;-74
2022/12/24 10:57:26;;;;;;;;;;;;;;;;;;2212078;59;12916;-73
2022/12/24 10:59:59;;;;;;;;;;;;;;;;;;2215961;59;11759;-73
2022/12/24 11:02:33;;;;;;;;;;;;;;;;;;2217104;58;13740;-73
2022/12/24 11:05:07;;;;;;;;;;;;;;;;;;2215076;58;13821;-73
2022/12/24 11:07:40;;;;;;;;;;;;;;;;;;2210885;59;25867;-73
2022/12/24 11:10:25;;;;;;;;;;;;;;;;;;2214803;59;12468;-72
2022/12/24 11:12:58;;;;;;;;;;;;;;;;;;2209793;59;14163;-73
2022/12/24 11:15:33;;;;;;;;;;;;;;;;;;2214082;59;15432;-73
2022/12/24 11:18:08;;;;;;;;;;;;;;;;;;2214451;58;12875;-73
2022/12/24 11:20:41;;;;;;;;;;;;;;;;;;2213500;58;14184;-73
2022/12/24 11:23:17;;;;;;;;;;;;;;;;;;2214153;58;11710;-73
2022/12/24 11:25:54;;;;;;;;;;;;;;;;;;2214001;58;13021;-73
2022/12/24 11:28:28;;;;;;;;;;;;;;;;;;2214347;58;12513;-73
2022/12/24 11:31:03;;;;;;;;;;;;;;;;;;2214317;58;14336;-73
2022/12/24 11:33:47;;;;;;;;;;;;;;;;;;2215140;59;11197;-73
2022/12/24 11:36:23;;;;;;;;;;;;;;;;;;2214739;58;11960;-73
2022/12/24 11:38:57;;;;;;;;;;;;;;;;;;2210909;59;42486;-73
2022/12/24 11:41:39;;;;;;;;;;;;;;;;;;2213546;58;25358;-73
2022/12/24 11:47:29;;;;;;;;;;;;;;;;;;2345283;58;1702;-73
2022/12/24 11:50:20;;;;;;;;;;;;;;;;;;1648176;59;35843682;-73
2022/12/24 11:52:58;;;;;;;;;;;;;;;;;;2217098;58;18098;-73
2022/12/24 11:55:38;;;;;;;;;;;;;;;;;;2214514;58;13424;-73
2022/12/24 11:58:23;;;;;;;;;;;;;;;;;;2213963;58;24921;-73
2022/12/24 12:01:02;;;;;;;;;;;;;;;;;;2220826;53;161215;-84
2022/12/24 12:03:42;;;;;;;;;;;;;;;;;;2222653;58;1228;-84
2022/12/24 12:09:19;;;;;;;;;;;;;;;;;;2216882;58;125246;-83
2022/12/24 12:12:10;;;;;;;;;;;;;;;;;;1686022;58;30650178;-85
2022/12/24 12:15:03;;;;;;;;;;;;;;;;;;2228321;58;168184;-85
2022/12/24 12:17:52;;;;;;;;;;;;;;;;;;2202360;58;2074178;-84
2022/12/24 12:20:38;;;;;;;;;;;;;;;;;;2205174;58;1759515;-83
2022/12/24 12:26:03;;;;;;;;;;;;;;;;;;2170709;58;2212921;-85
2022/12/24 12:28:47;;;;;;;;;;;;;;;;;;2198050;58;1929955;-87
2022/12/24 12:31:32;;;;;;;;;;;;;;;;;;2225516;58;167772;-85
2022/12/24 12:34:25;;;;;;;;;;;;;;;;;;2198207;58;2123509;-82
2022/12/24 12:37:06;;;;;;;;;;;;;;;;;;2170557;63;1830641;-82
2022/12/24 12:39:42;;;;;;;;;;;;;;;;;;2176412;58;2689613;-82
2022/12/24 12:42:27;;;;;;;;;;;;;;;;;;2169253;58;1825006;-84
2022/12/24 12:45:24;;;;;;;;;;;;;;;;;;2188292;58;1877567;-84
2022/12/24 12:48:12;;;;;;;;;;;;;;;;;;2209355;58;160418;-82
2022/12/24 12:50:53;;;;;;;;;;;;;;;;;;2187743;58;2019466;-82
2022/12/24 12:53:46;;;;;;;;;;;;;;;;;;1667024;58;36585387;-83
2022/12/24 12:56:30;;;;;;;;;;;;;;;;;;2217339;58;118049;-83
2022/12/24 12:59:33;;;;;;;;;;;;;;;;;;2215287;58;152859;-84
2022/12/24 13:02:30;;;;;;;;;;;;;;;;;;2145299;58;2615591;-83
2022/12/24 13:05:21;;;;;;;;;;;;;;;;;;2214005;58;187822;-84
2022/12/24 13:08:11;;;;;;;;;;;;;;;;;;2210679;58;144110;-83
2022/12/24 13:10:59;;;;;;;;;;;;;;;;;;2166373;58;1822710;-84
2022/12/24 13:13:49;;;;;;;;;;;;;;;;;;2212744;58;145190;-83
2022/12/24 13:16:41;;;;;;;;;;;;;;;;;;2216946;58;88738;-83
2022/12/24 13:19:23;;;;;;;;;;;;;;;;;;2216588;58;97512;-83
2022/12/24 13:22:03;;;;;;;;;;;;;;;;;;2212530;58;179084;-83
2022/12/24 13:24:39;;;;;;;;;;;;;;;;;;2217603;58;97528;-82
2022/12/24 13:27:21;;;;;;;;;;;;;;;;;;2218901;58;86651;-83
2022/12/24 13:30:04;;;;;;;;;;;;;;;;;;2188943;58;1840329;-83
2022/12/24 13:32:56;;;;;;;;;;;;;;;;;;2128351;58;5962572;-83
2022/12/24 13:35:40;;;;;;;;;;;;;;;;;;2173599;58;2658603;-83
2022/12/24 13:38:36;;;;;;;;;;;;;;;;;;2218911;58;77826;-83
2022/12/24 13:41:28;;;;;;;;;;;;;;;;;;2181616;58;2456768;-86
2022/12/24 13:44:12;;;;;;;;;;;;;;;;;;2160153;58;2206173;-82
2022/12/24 13:47:25;;;;;;;;;;;;;;;;;;2181853;58;2381479;-83
2022/12/24 13:50:26;;;;;;;;;;;;;;;;;;2217985;58;132822;-82
2022/12/24 13:53:00;;;;;;;;;;;;;;;;;;2177292;58;2694733;-83
2022/12/24 13:55:55;;;;;;;;;;;;;;;;;;2163120;58;2136918;-83
2022/12/24 13:58:38;;;;;;;;;;;;;;;;;;2124210;59;2356312;-83
2022/12/24 14:01:26;;;;;;;;;;;;;;;;;;2215202;58;162681;-82
2022/12/24 14:04:10;;;;;;;;;;;;;;;;;;2214485;58;113161;-83
2022/12/24 14:06:58;;;;;;;;;;;;;;;;;;2179561;58;2352763;-85
2022/12/24 14:09:44;;;;;;;;;;;;;;;;;;2187997;58;2074727;-84
2022/12/24 14:12:50;;;;;;;;;;;;;;;;;;2214034;58;177288;-84
2022/12/24 14:15:42;;;;;;;;;;;;;;;;;;2208876;58;129200;-84
2022/12/24 14:18:25;;;;;;;;;;;;;;;;;;1973237;58;14306905;-83
2022/12/24 14:21:29;;;;;;;;;;;;;;;;;;2220772;58;1512;-83
2022/12/24 14:24:24;;;;;;;;;;;;;;;;;;2217961;58;1820;-84
2022/12/24 14:27:20;;;;;;;;;;;;;;;;;;2222025;58;1099;-82
2022/12/24 14:30:19;;;;;;;;;;;;;;;;;;2220407;58;1407;-83
2022/12/24 14:33:28;;;;;;;;;;;;;;;;;;2219961;58;61795;-83
2022/12/24 14:36:05;;;;;;;;;;;;;;;;;;2214863;58;99447;-83
2022/12/24 14:38:39;;;;;;;;;;;;;;;;;;2216621;58;109273;-84
2022/12/24 14:41:20;;;;;;;;;;;;;;;;;;2219625;58;56093;-83
2022/12/24 14:43:59;;;;;;;;;;;;;;;;;;2215848;58;152625;-83
2022/12/24 14:46:37;;;;;;;;;;;;;;;;;;2217381;58;144456;-85
2022/12/24 14:49:19;;;;;;;;;;;;;;;;;;2219666;58;148410;-84
2022/12/24 14:52:03;;;;;;;;;;;;;;;;;;2218719;59;60945;-83
2022/12/24 14:54:39;;;;;;;;;;;;;;;;;;2216943;58;180032;-84
2022/12/24 14:57:27;;;;;;;;;;;;;;;;;;2221343;58;59454;-83
2022/12/24 15:00:02;;;;;;;;;;;;;;;;;;2189493;58;1743608;-83
2022/12/24 15:02:57;;;;;;;;;;;;;;;;;;2226564;58;1274;-83
2022/12/24 15:05:31;;;;;;;;;;;;;;;;;;2224024;58;1519;-83
2022/12/24 15:08:18;;;;;;;;;;;;;;;;;;2224677;58;1141;-84
2022/12/24 15:10:55;;;;;;;;;;;;;;;;;;2224647;58;1975;-83
2022/12/24 15:13:33;;;;;;;;;;;;;;;;;;2225763;58;1607;-84
2022/12/24 15:16:07;;;;;;;;;;;;;;;;;;2227500;58;1237;-83
2022/12/24 15:18:45;;;;;;;;;;;;;;;;;;2230866;58;1947;-82
2022/12/24 15:21:27;;;;;;;;;;;;;;;;;;2230883;58;1313;-84
2022/12/24 15:24:04;;;;;;;;;;;;;;;;;;2227986;58;1206;-85
2022/12/24 16:09:31;;;;;;;;;;;;;;;;;;2374763;53;1914;-73
2022/12/24 16:12:13;;;;;;;;;;;;;;;;;;2218937;58;1090;-73
2022/12/24 16:14:48;;;;;;;;;;;;;;;;;;2219801;58;1435;-73
2022/12/24 16:17:23;;;;;;;;;;;;;;;;;;2219658;58;1272;-72
2022/12/24 16:19:58;;;;;;;;;;;;;;;;;;2219904;58;1940;-73
2022/12/24 16:22:34;;;;;;;;;;;;;;;;;;2220149;58;1192;-71
2022/12/24 16:33:18;;;;;;;;;;;;;;;;;;2406455;53;1918;-74
2022/12/24 16:35:52;;;;;;;;;;;;;;;;;;2210720;59;1679;-73
2022/12/24 16:38:25;;;;;;;;;;;;;;;;;;2210994;59;1900;-73
2022/12/24 16:40:58;;;;;;;;;;;;;;;;;;2211805;59;1707;-73
2022/12/24 16:46:20;;;;;;;;;;;;;;;;;;2213136;59;1152;-73
2022/12/24 16:48:56;;;;;;;;;;;;;;;;;;2212540;59;1414;-73
2022/12/24 16:51:29;;;;;;;;;;;;;;;;;;2213123;59;1633;-73
2022/12/24 16:54:02;;;;;;;;;;;;;;;;;;2212260;59;1503;-73
2022/12/24 16:56:35;;;;;;;;;;;;;;;;;;2212938;59;1263;-73
2022/12/24 16:59:08;;;;;;;;;;;;;;;;;;2212427;59;1951;-73
2022/12/24 17:01:41;;;;;;;;;;;;;;;;;;2213108;59;1157;-72
2022/12/24 17:04:17;;;;;;;;;;;;;;;;;;2212236;59;1602;-72
2022/12/24 17:06:51;;;;;;;;;;;;;;;;;;2211829;59;1657;-72
2022/12/24 17:09:24;;;;;;;;;;;;;;;;;;2212489;59;1215;-72
2022/12/24 17:11:58;;;;;;;;;;;;;;;;;;2212718;59;1482;-72
2022/12/24 17:14:31;;;;;;;;;;;;;;;;;;2211918;59;1279;-73
2022/12/24 17:17:04;;;;;;;;;;;;;;;;;;2212017;59;1619;-72
2022/12/24 17:19:40;;;;;;;;;;;;;;;;;;2212937;58;1992;-73
2022/12/24 17:22:13;;;;;;;;;;;;;;;;;;2212250;59;1474;-73
2022/12/24 17:24:47;;;;;;;;;;;;;;;;;;2212224;59;1752;-73
2022/12/24 17:27:20;;;;;;;;;;;;;;;;;;2211829;59;1204;-73
2022/12/24 17:29:53;;;;;;;;;;;;;;;;;;2212779;59;1433;-73
2022/12/24 17:32:26;;;;;;;;;;;;;;;;;;2212255;59;1181;-73
2022/12/24 17:35:02;;;;;;;;;;;;;;;;;;2212090;59;1411;-73
2022/12/24 17:37:35;;;;;;;;;;;;;;;;;;2212971;59;1347;-73
2022/12/24 17:40:11;;;;;;;;;;;;;;;;;;2212249;59;1937;-73
2022/12/24 17:42:44;;;;;;;;;;;;;;;;;;2213221;59;1551;-73
2022/12/24 17:45:17;;;;;;;;;;;;;;;;;;2211460;59;1396;-73
2022/12/24 17:47:50;;;;;;;;;;;;;;;;;;2213083;59;1231;-73
2022/12/24 17:50:26;;;;;;;;;;;;;;;;;;2212401;59;1682;-73
2022/12/24 17:52:59;;;;;;;;;;;;;;;;;;2212938;59;1359;-73
2022/12/24 17:55:32;;;;;;;;;;;;;;;;;;2211167;59;1620;-73
2022/12/24 17:58:06;;;;;;;;;;;;;;;;;;2212262;59;1103;-73
2022/12/24 18:00:40;;;;;;;;;;;;;;;;;;2211709;59;1964;-73
2022/12/24 18:03:14;;;;;;;;;;;;;;;;;;2212519;59;1248;-73
2022/12/24 18:05:50;;;;;;;;;;;;;;;;;;2212892;59;1518;-73
2022/12/24 18:08:23;;;;;;;;;;;;;;;;;;2212465;59;1252;-73
2022/12/24 18:10:56;;;;;;;;;;;;;;;;;;2212831;59;1114;-73
2022/12/24 18:13:30;;;;;;;;;;;;;;;;;;2212439;59;1273;-73
2022/12/24 18:16:03;;;;;;;;;;;;;;;;;;2212355;59;1280;-73
2022/12/24 18:18:36;;;;;;;;;;;;;;;;;;2213300;59;1995;-73
2022/12/24 18:21:12;;;;;;;;;;;;;;;;;;2212943;59;1126;-73
2022/12/24 18:23:46;;;;;;;;;;;;;;;;;;2213559;59;1255;-73
2022/12/24 18:26:20;;;;;;;;;;;;;;;;;;2212502;59;2104;-73
2022/12/24 18:28:54;;;;;;;;;;;;;;;;;;2212861;59;1249;-73
2022/12/24 18:31:28;;;;;;;;;;;;;;;;;;2212217;59;1186;-73
2022/12/24 18:34:02;;;;;;;;;;;;;;;;;;2212031;59;1450;-73
2022/12/24 18:36:37;;;;;;;;;;;;;;;;;;2212466;59;1261;-72
2022/12/24 18:39:11;;;;;;;;;;;;;;;;;;2212251;59;1991;-73
2022/12/24 18:41:44;;;;;;;;;;;;;;;;;;2211760;59;1881;-72
2022/12/24 18:44:17;;;;;;;;;;;;;;;;;;2210786;59;1642;-72
2022/12/24 18:46:50;;;;;;;;;;;;;;;;;;2212635;59;1073;-72
2022/12/24 18:49:23;;;;;;;;;;;;;;;;;;2211007;59;1669;-72
2022/12/24 18:51:59;;;;;;;;;;;;;;;;;;2212350;59;1345;-72
2022/12/24 18:54:32;;;;;;;;;;;;;;;;;;2211420;59;2277;-72
2022/12/24 18:57:05;;;;;;;;;;;;;;;;;;2213133;59;1191;-73
2022/12/24 18:59:40;;;;;;;;;;;;;;;;;;2213935;59;1990;-72
2022/12/24 19:02:13;;;;;;;;;;;;;;;;;;2212956;59;1085;-72
2022/12/24 19:04:46;;;;;;;;;;;;;;;;;;2213195;59;1479;-72
2022/12/24 19:07:22;;;;;;;;;;;;;;;;;;2212077;59;1199;-72
2022/12/24 19:09:55;;;;;;;;;;;;;;;;;;2212829;59;1319;-72
2022/12/24 19:12:29;;;;;;;;;;;;;;;;;;2211450;59;1200;-72
2022/12/24 19:15:02;;;;;;;;;;;;;;;;;;2212095;59;1237;-72
2022/12/24 19:17:35;;;;;;;;;;;;;;;;;;2212317;59;1335;-72
2022/12/24 19:20:08;;;;;;;;;;;;;;;;;;2211875;59;1939;-73
2022/12/24 19:22:44;;;;;;;;;;;;;;;;;;2211719;59;1875;-73
2022/12/24 19:25:17;;;;;;;;;;;;;;;;;;2211820;59;1323;-73
2022/12/24 19:27:50;;;;;;;;;;;;;;;;;;2212502;59;1187;-73
2022/12/24 19:30:24;;;;;;;;;;;;;;;;;;2212290;59;1388;-72
2022/12/24 19:32:57;;;;;;;;;;;;;;;;;;2212251;59;1169;-72
2022/12/24 19:35:30;;;;;;;;;;;;;;;;;;2213101;59;1243;-73
2022/12/24 19:38:06;;;;;;;;;;;;;;;;;;2212995;59;1531;-72
2022/12/24 19:40:39;;;;;;;;;;;;;;;;;;2213362;59;1932;-73
2022/12/24 19:43:13;;;;;;;;;;;;;;;;;;2212323;59;1778;-73
2022/12/24 19:45:46;;;;;;;;;;;;;;;;;;2213872;59;1240;-72
2022/12/24 19:48:19;;;;;;;;;;;;;;;;;;2212658;59;1276;-72
2022/12/24 19:50:52;;;;;;;;;;;;;;;;;;2213129;59;1752;-73
2022/12/24 19:53:28;;;;;;;;;;;;;;;;;;2212597;59;1264;-72
2022/12/24 19:56:01;;;;;;;;;;;;;;;;;;2212617;59;1325;-72
2022/12/24 19:58:34;;;;;;;;;;;;;;;;;;2213298;59;1393;-72
2022/12/24 20:01:07;;;;;;;;;;;;;;;;;;2213338;59;1955;-73
2022/12/24 20:03:41;;;;;;;;;;;;;;;;;;2213411;59;1533;-73
2022/12/24 20:06:15;;;;;;;;;;;;;;;;;;2213793;59;1198;-73
2022/12/24 20:08:51;;;;;;;;;;;;;;;;;;2213905;59;1431;-72
2022/12/24 20:11:24;;;;;;;;;;;;;;;;;;2214075;59;1214;-72
2022/12/24 20:13:58;;;;;;;;;;;;;;;;;;2213473;59;1256;-72
2022/12/24 20:16:32;;;;;;;;;;;;;;;;;;2214087;59;1414;-72
2022/12/24 20:19:06;;;;;;;;;;;;;;;;;;2213695;59;1933;-72
2022/12/24 20:21:39;;;;;;;;;;;;;;;;;;2214448;59;1415;-72
2022/12/24 20:24:15;;;;;;;;;;;;;;;;;;2213639;59;1266;-72
2022/12/24 20:26:48;;;;;;;;;;;;;;;;;;2213988;59;1248;-72
2022/12/24 20:29:21;;;;;;;;;;;;;;;;;;2213886;59;1259;-72
2022/12/24 20:31:54;;;;;;;;;;;;;;;;;;2213520;59;1226;-72
2022/12/24 20:34:27;;;;;;;;;;;;;;;;;;2213955;59;1228;-72
2022/12/24 20:37:00;;;;;;;;;;;;;;;;;;2213556;59;1231;-72
2022/12/24 20:39:36;;;;;;;;;;;;;;;;;;2213999;59;1931;-72
2022/12/24 20:42:09;;;;;;;;;;;;;;;;;;2213125;59;1655;-72
2022/12/24 20:44:43;;;;;;;;;;;;;;;;;;2213433;59;1608;-72
2022/12/24 20:47:16;;;;;;;;;;;;;;;;;;2213538;59;1234;-72
2022/12/24 20:49:49;;;;;;;;;;;;;;;;;;2214076;59;1686;-72
2022/12/24 20:52:22;;;;;;;;;;;;;;;;;;2213467;59;1291;-72
2022/12/24 20:54:58;;;;;;;;;;;;;;;;;;2214179;59;1273;-73
2022/12/24 20:57:31;;;;;;;;;;;;;;;;;;2213905;59;1264;-72
2022/12/24 21:00:04;;;;;;;;;;;;;;;;;;2213365;59;1983;-72
2022/12/24 21:02:37;;;;;;;;;;;;;;;;;;2213828;59;1451;-72
2022/12/24 21:05:11;;;;;;;;;;;;;;;;;;2213117;59;1340;-72
2022/12/24 21:07:45;;;;;;;;;;;;;;;;;;2214067;59;1495;-72
2022/12/24 21:10:21;;;;;;;;;;;;;;;;;;2213693;59;1676;-72
2022/12/24 21:12:55;;;;;;;;;;;;;;;;;;2213992;59;1264;-72
2022/12/24 21:15:29;;;;;;;;;;;;;;;;;;2213184;59;1253;-72
2022/12/24 21:18:10;;;;;;;;;;;;;;;;;;2213533;59;1369;-72
2022/12/24 21:20:43;;;;;;;;;;;;;;;;;;2213847;59;1927;-72
2022/12/24 21:23:16;;;;;;;;;;;;;;;;;;2213602;59;1251;-72
2022/12/24 21:26:01;;;;;;;;;;;;;;;;;;2214108;59;1337;-72
2022/12/24 21:28:34;;;;;;;;;;;;;;;;;;2213864;59;1314;-72
2022/12/24 21:31:10;;;;;;;;;;;;;;;;;;2213778;59;1378;-72
2022/12/24 21:33:43;;;;;;;;;;;;;;;;;;2214185;59;1339;-72
2022/12/24 21:36:17;;;;;;;;;;;;;;;;;;2213971;59;1200;-73
2022/12/24 21:38:50;;;;;;;;;;;;;;;;;;2214291;59;1404;-72
2022/12/24 21:41:26;;;;;;;;;;;;;;;;;;2213845;59;1927;-73
2022/12/24 21:44:02;;;;;;;;;;;;;;;;;;2213680;59;1592;-72
2022/12/24 21:46:35;;;;;;;;;;;;;;;;;;2214294;59;1146;-73
2022/12/24 21:51:57;;;;;;;;;;;;;;;;;;2214180;59;1105;-72
2022/12/24 21:54:32;;;;;;;;;;;;;;;;;;2213803;59;1532;-73
2022/12/24 22:00:20;;;;;;;;;;;;;;;;;;2214030;59;1987;-72
2022/12/24 22:02:52;;;;;;;;;;;;;;;;;;2213799;59;1388;-73
2022/12/24 22:05:26;;;;;;;;;;;;;;;;;;2213504;59;1281;-72
2022/12/24 22:13:40;;;;;;;;;;;;;;;;;;2214134;59;1236;-73
2022/12/24 22:16:14;;;;;;;;;;;;;;;;;;2213030;59;1345;-72
2022/12/24 22:18:47;;;;;;;;;;;;;;;;;;2212755;59;1609;-72
2022/12/24 22:21:20;;;;;;;;;;;;;;;;;;2211363;59;2016;-73
2022/12/24 22:23:53;;;;;;;;;;;;;;;;;;2213371;59;1509;-73
2022/12/24 22:26:26;;;;;;;;;;;;;;;;;;2213096;59;1589;-72
2022/12/24 22:29:02;;;;;;;;;;;;;;;;;;2212122;59;1299;-72
2022/12/24 22:31:36;;;;;;;;;;;;;;;;;;2212549;59;1805;-73
2022/12/24 22:44:52;;;;;;;;;;;;;;;;;;2314923;53;1980;-72
2022/12/24 22:47:25;;;;;;;;;;;;;;;;;;2219338;58;1677;-72
2022/12/24 22:49:58;;;;;;;;;;;;;;;;;;2220632;58;1560;-72
2022/12/24 22:52:33;;;;;;;;;;;;;;;;;;2220880;58;1210;-72
2022/12/24 22:55:06;;;;;;;;;;;;;;;;;;2218799;58;1331;-72
2022/12/24 22:57:39;;;;;;;;;;;;;;;;;;2217293;58;1796;-72
2022/12/24 23:00:19;;;;;;;;;;;;;;;;;;2217090;58;1984;-72
2022/12/24 23:02:52;;;;;;;;;;;;;;;;;;2217100;58;2743;-72
2022/12/24 23:05:25;;;;;;;;;;;;;;;;;;2217026;58;1263;-72
2022/12/24 23:07:58;;;;;;;;;;;;;;;;;;2217215;58;1263;-72
2022/12/24 23:10:31;;;;;;;;;;;;;;;;;;2217085;58;1216;-72
2022/12/24 23:16:06;;;;;;;;;;;;;;;;;;2212527;59;1218;-72
2022/12/24 23:18:39;;;;;;;;;;;;;;;;;;2218625;58;1663;-72
2022/12/24 23:21:12;;;;;;;;;;;;;;;;;;2218438;58;1995;-72
2022/12/24 23:23:45;;;;;;;;;;;;;;;;;;2218403;59;1258;-72
2022/12/24 23:26:20;;;;;;;;;;;;;;;;;;2218430;58;1273;-72
2022/12/24 23:28:53;;;;;;;;;;;;;;;;;;2217949;58;1278;-72
2022/12/24 23:31:29;;;;;;;;;;;;;;;;;;2218379;58;1263;-72
2022/12/24 23:34:03;;;;;;;;;;;;;;;;;;2218493;58;1237;-72
2022/12/24 23:36:36;;;;;;;;;;;;;;;;;;2217931;58;1319;-72
2022/12/24 23:39:09;;;;;;;;;;;;;;;;;;2218084;58;1119;-72
2022/12/24 23:41:42;;;;;;;;;;;;;;;;;;2214469;58;1941;-72
2022/12/24 23:44:15;;;;;;;;;;;;;;;;;;2217326;58;1605;-72
2022/12/24 23:46:51;;;;;;;;;;;;;;;;;;2217682;58;1445;-72
2022/12/24 23:49:24;;;;;;;;;;;;;;;;;;2216399;58;1947;-72
2022/12/24 23:51:57;;;;;;;;;;;;;;;;;;2218171;58;1180;-72
2022/12/24 23:54:30;;;;;;;;;;;;;;;;;;2217907;58;1263;-72
2022/12/24 23:57:04;;;;;;;;;;;;;;;;;;2217784;58;1265;-72
2022/12/24 23:59:37;;;;;;;;;;;;;;;;;;2217926;58;1238;-72
